Time;durP1;ratioP1;P1;durP2;ratioP2;P2;SDS_P1;SDS_P2;PMS_P1;PMS_P2;Temp;Humidity;BMP_temperature;BMP_pressure;BME280_temperature;BME280_humidity;BME280_pressure;Samples;Min_cycle;Max_cycle;Signal;HPM_P1;HPM_P2
2022/08/02 00:00:32;;;;;;;7.40;4.50;;;;;;;18.55;82.67;100068.05;130093;1268;296668;-75
2022/08/02 00:03:44;;;;;;;7.40;4.50;;;;;;;18.55;82.64;100063.27;130336;1268;108791;-75
2022/08/02 00:06:50;;;;;;;5.40;4.50;;;;;;;18.53;82.79;100062.14;130286;1268;108544;-75
2022/08/02 00:09:56;;;;;;;5.00;4.10;;;;;;;18.51;82.83;100060.60;130282;1268;108685;-75
2022/08/02 00:13:01;;;;;;;5.30;4.60;;;;;;;18.50;82.83;100059.91;130357;1268;108756;-75
2022/08/02 00:16:07;;;;;;;5.20;4.60;;;;;;;18.44;82.94;100057.55;130320;1268;109151;-75
2022/08/02 00:19:13;;;;;;;5.50;4.50;;;;;;;18.43;83.04;100056.05;130313;1268;109972;-75
2022/08/02 00:22:18;;;;;;;5.00;4.30;;;;;;;18.38;82.91;100052.02;130299;1268;108758;-75
2022/08/02 00:25:24;;;;;;;6.50;4.30;;;;;;;18.33;82.92;100055.55;130332;1268;108835;-75
2022/08/02 00:28:29;;;;;;;5.50;4.40;;;;;;;18.26;82.83;100055.56;130283;1268;107830;-75
2022/08/02 00:31:34;;;;;;;5.80;4.80;;;;;;;18.19;83.03;100056.89;130314;1268;109631;-75
2022/08/02 00:34:40;;;;;;;8.00;4.90;;;;;;;18.14;82.63;100063.17;130282;1268;108978;-75
2022/08/02 00:37:46;;;;;;;5.20;4.50;;;;;;;18.01;82.99;100067.95;130336;1268;109036;-75
2022/08/02 00:40:53;;;;;;;6.00;4.30;;;;;;;17.95;83.07;100069.80;130307;1268;108949;-75
2022/08/02 00:43:58;;;;;;;5.40;4.20;;;;;;;17.91;83.14;100071.58;130303;1268;108734;-75
2022/08/02 00:47:03;;;;;;;4.50;4.00;;;;;;;17.90;83.13;100073.57;130331;1268;108856;-75
2022/08/02 00:50:10;;;;;;;5.30;4.50;;;;;;;17.90;83.19;100079.14;130281;1268;109031;-75
2022/08/02 00:53:15;;;;;;;8.20;4.80;;;;;;;17.90;83.29;100084.98;130331;1268;108913;-74
2022/08/02 00:56:20;;;;;;;6.10;4.90;;;;;;;17.95;83.24;100083.59;130260;1268;109043;-75
2022/08/02 00:59:26;;;;;;;6.00;4.30;;;;;;;17.93;83.35;100086.23;130302;1268;106834;-74
2022/08/02 01:02:31;;;;;;;7.10;4.80;;;;;;;17.94;83.65;100084.55;130315;1268;108154;-74
2022/08/02 01:05:37;;;;;;;6.20;4.40;;;;;;;17.96;83.62;100084.92;130305;1268;107811;-74
2022/08/02 01:08:42;;;;;;;5.70;4.80;;;;;;;17.97;83.69;100088.90;130270;1268;108917;-75
2022/08/02 01:11:48;;;;;;;5.60;4.60;;;;;;;17.97;83.90;100088.56;130287;1268;108586;-75
2022/08/02 01:14:55;;;;;;;6.70;4.80;;;;;;;17.96;83.78;100088.33;130088;1268;108706;-74
2022/08/02 01:18:08;;;;;;;8.10;4.20;;;;;;;17.96;83.96;100088.20;130346;1268;107577;-74
2022/08/02 01:21:32;;;;;;;5.40;4.90;;;;;;;17.99;84.17;100089.95;130355;1268;108901;-74
2022/08/02 01:25:04;;;;;;;5.60;4.90;;;;;;;18.04;84.05;100094.73;130251;1268;108029;-74
2022/08/02 01:28:34;;;;;;;5.80;5.10;;;;;;;18.03;83.88;100095.73;130252;1268;108610;-74
2022/08/02 01:31:47;;;;;;;4.40;4.00;;;;;;;18.03;84.10;100098.02;130280;1268;109002;-74
2022/08/02 01:34:59;;;;;;;5.80;4.40;;;;;;;18.00;83.87;100103.37;130303;1268;108821;-76
2022/08/02 01:38:11;;;;;;;5.50;4.80;;;;;;;17.94;84.03;100098.58;130329;1267;108826;-74
2022/08/02 01:41:18;;;;;;;;;;;;;;;17.89;84.21;100097.66;130336;1268;108710;-75
2022/08/02 01:44:25;;;;;;;6.60;4.40;;;;;;;17.84;84.33;100098.59;130268;1268;109057;-75
2022/08/02 01:47:34;;;;;;;7.30;4.70;;;;;;;17.77;84.32;100098.77;130303;1268;108853;-74
2022/08/02 01:50:41;;;;;;;5.10;4.50;;;;;;;17.71;84.39;100097.42;130281;1268;108913;-74
2022/08/02 01:53:49;;;;;;;4.80;4.00;;;;;;;17.70;84.28;100102.10;130352;1268;108771;-75
2022/08/02 01:56:57;;;;;;;6.30;4.90;;;;;;;17.66;84.34;100099.69;130303;1267;108843;-74
2022/08/02 02:00:06;;;;;;;6.90;5.20;;;;;;;17.71;84.45;100098.73;130291;1268;109687;-74
2022/08/02 02:03:15;;;;;;;6.40;4.60;;;;;;;17.75;84.35;100095.56;130340;1268;109222;-74
2022/08/02 02:06:22;;;;;;;5.70;4.40;;;;;;;17.74;84.27;100095.61;130327;1268;108901;-74
2022/08/02 02:09:31;;;;;;;5.10;4.10;;;;;;;17.71;84.42;100097.67;130313;1267;108785;-74
2022/08/02 02:12:39;;;;;;;6.00;4.80;;;;;;;17.65;84.44;100097.81;130270;1268;108574;-74
2022/08/02 02:15:47;;;;;;;5.60;4.60;;;;;;;17.66;84.64;100097.91;130308;1268;108755;-74
2022/08/02 02:18:54;;;;;;;5.90;4.70;;;;;;;17.68;84.75;100095.87;130266;1268;108739;-74
2022/08/02 02:21:59;;;;;;;7.00;4.30;;;;;;;17.70;84.86;100094.42;130319;1268;106952;-74
2022/08/02 02:25:06;;;;;;;5.40;4.90;;;;;;;17.70;84.89;100092.14;130255;1268;108681;-74
2022/08/02 02:28:15;;;;;;;6.10;4.90;;;;;;;17.70;84.83;100090.56;130288;1268;108969;-74
2022/08/02 02:31:21;;;;;;;5.70;4.80;;;;;;;17.69;84.72;100091.94;130317;1268;108439;-74
2022/08/02 02:34:29;;;;;;;6.50;5.10;;;;;;;17.60;84.89;100095.07;130307;1268;108623;-74
2022/08/02 02:37:38;;;;;;;6.00;4.80;;;;;;;17.50;85.04;100094.79;130310;1268;107673;-74
2022/08/02 02:40:45;;;;;;;5.20;4.70;;;;;;;17.49;85.39;100092.08;130270;1268;108539;-74
2022/08/02 02:43:53;;;;;;;5.40;4.60;;;;;;;17.52;85.41;100089.02;130189;1268;108610;-74
2022/08/02 02:47:00;;;;;;;6.60;5.10;;;;;;;17.53;85.35;100089.27;130280;1267;108747;-74
2022/08/02 02:50:07;;;;;;;5.80;4.70;;;;;;;17.51;85.34;100083.00;130273;1268;108579;-74
2022/08/02 02:53:16;;;;;;;5.60;4.20;;;;;;;17.49;85.41;100080.41;130260;1268;108528;-74
2022/08/02 02:56:23;;;;;;;6.80;4.90;;;;;;;17.48;85.51;100083.53;130222;1267;108596;-74
2022/08/02 02:59:30;;;;;;;5.20;4.60;;;;;;;17.50;85.43;100082.29;130335;1267;108713;-74
2022/08/02 03:02:37;;;;;;;6.20;5.60;;;;;;;17.52;85.53;100079.39;130271;1268;108110;-74
2022/08/02 03:05:43;;;;;;;6.00;4.70;;;;;;;17.54;85.47;100078.95;130245;1268;108684;-74
2022/08/02 03:08:48;;;;;;;7.00;4.70;;;;;;;17.51;85.47;100084.90;130223;1267;108794;-74
2022/08/02 03:11:55;;;;;;;6.90;5.70;;;;;;;17.51;85.77;100083.41;130271;1267;108944;-74
2022/08/02 03:15:03;;;;;;;5.60;5.00;;;;;;;17.56;85.67;100085.05;130351;1268;109023;-74
2022/08/02 03:18:09;;;;;;;6.70;5.70;;;;;;;17.61;85.43;100088.51;130300;1268;108742;-74
2022/08/02 03:21:15;;;;;;;6.40;5.40;;;;;;;17.55;85.57;100085.20;130257;1268;108881;-74
2022/08/02 03:24:20;;;;;;;8.00;5.30;;;;;;;17.60;85.87;100080.55;130211;1268;107232;-74
2022/08/02 03:27:26;;;;;;;6.00;5.20;;;;;;;17.68;85.84;100092.02;130190;1268;109018;-74
2022/08/02 03:30:31;;;;;;;6.60;5.70;;;;;;;17.69;85.71;100092.89;130287;1267;106956;-74
2022/08/02 03:33:37;;;;;;;8.60;6.80;;;;;;;17.76;86.01;100091.41;130262;1268;108999;-75
2022/08/02 03:36:43;;;;;;;7.50;6.20;;;;;;;17.81;86.18;100094.13;130292;1265;108756;-75
2022/08/02 03:39:50;;;;;;;7.80;5.40;;;;;;;17.87;86.16;100092.46;130297;1268;108305;-74
2022/08/02 03:42:56;;;;;;;6.80;5.40;;;;;;;17.95;86.15;100094.47;130268;1268;107350;-74
2022/08/02 03:46:03;;;;;;;10.10;7.60;;;;;;;17.99;86.06;100099.63;130252;1268;108569;-74
2022/08/02 03:49:11;;;;;;;24.60;13.80;;;;;;;18.05;86.42;100109.48;130312;1268;108858;-74
2022/08/02 03:52:17;;;;;;;16.00;10.40;;;;;;;18.14;86.45;100107.73;130254;1268;108005;-75
2022/08/02 03:55:23;;;;;;;22.60;12.10;;;;;;;18.24;86.67;100110.95;130305;1268;109039;-74
2022/08/02 03:58:28;;;;;;;18.30;10.70;;;;;;;18.34;86.70;100110.30;130323;1268;108678;-75
2022/08/02 04:01:33;;;;;;;28.60;13.90;;;;;;;18.43;86.62;100114.28;130283;1268;108814;-75
2022/08/02 04:04:39;;;;;;;25.00;14.40;;;;;;;18.45;86.59;100110.70;130296;1268;108691;-75
2022/08/02 04:07:47;;;;;;;27.80;14.20;;;;;;;18.50;86.67;100119.02;130256;1267;108966;-75
2022/08/02 04:14:16;;;;;;;19.70;11.50;;;;;;;18.61;86.95;100130.90;130264;1268;108575;-75
2022/08/02 04:17:23;;;;;;;14.40;11.90;;;;;;;18.69;87.14;100137.52;130069;1268;109024;-74
2022/08/02 04:20:31;;;;;;;11.80;9.30;;;;;;;18.73;87.32;100138.70;130306;1268;108700;-74
2022/08/02 04:23:38;;;;;;;10.60;8.70;;;;;;;18.83;87.40;100138.02;130298;1267;108816;-76
2022/08/02 04:26:44;;;;;;;11.20;8.90;;;;;;;18.99;87.24;100145.61;130346;1265;108869;-75
2022/08/02 04:29:50;;;;;;;11.40;9.30;;;;;;;19.14;87.39;100145.16;130272;1267;107478;-75
2022/08/02 04:32:56;;;;;;;13.40;12.10;;;;;;;19.33;87.45;100147.05;130324;1268;108905;-75
2022/08/02 04:36:02;;;;;;;12.70;11.50;;;;;;;19.48;87.29;100147.58;130288;1268;108722;-75
2022/08/02 04:39:08;;;;;;;12.70;11.50;;;;;;;19.54;87.32;100144.36;130254;1268;107161;-76
2022/08/02 04:42:21;;;;;;;11.70;10.50;;;;;;;19.59;87.46;100147.63;130276;1268;108957;-73
2022/08/02 04:45:29;;;;;;;11.90;10.80;;;;;;;19.71;87.52;100148.34;130400;1268;107858;-73
2022/08/02 04:48:34;;;;;;;13.40;12.10;;;;;;;19.89;87.57;100154.59;130267;1267;109010;-74
2022/08/02 04:51:42;;;;;;;12.70;11.60;;;;;;;20.09;87.40;100153.85;130280;1268;108181;-74
2022/08/02 04:54:47;;;;;;;14.50;13.00;;;;;;;20.23;87.13;100158.80;130280;1268;108664;-74
2022/08/02 04:57:56;;;;;;;8.30;7.10;;;;;;;20.30;87.06;100169.84;130300;1267;108747;-74
2022/08/02 05:01:01;;;;;;;8.40;6.80;;;;;;;20.37;86.97;100173.61;130266;1268;108661;-74
2022/08/02 05:04:07;;;;;;;10.50;8.60;;;;;;;20.50;86.37;100169.45;130253;1268;109099;-74
2022/08/02 05:07:12;;;;;;;12.40;11.20;;;;;;;20.67;86.18;100179.55;130322;1268;108449;-75
2022/08/02 05:10:18;;;;;;;15.70;14.00;;;;;;;20.74;86.39;100180.61;130338;1268;108676;-74
2022/08/02 05:13:24;;;;;;;12.40;11.10;;;;;;;20.66;86.35;100182.40;130299;1268;108762;-74
2022/08/02 05:16:29;;;;;;;8.70;7.90;;;;;;;20.66;86.00;100182.36;130296;1268;108888;-75
2022/08/02 05:19:35;;;;;;;7.30;6.60;;;;;;;20.82;85.17;100179.55;130255;1268;108821;-74
2022/08/02 05:22:40;;;;;;;6.40;5.40;;;;;;;21.06;84.39;100184.15;130266;1267;108895;-74
2022/08/02 05:25:46;;;;;;;9.20;8.30;;;;;;;21.27;84.27;100189.30;130299;1268;108550;-75
2022/08/02 05:28:51;;;;;;;6.60;6.00;;;;;;;21.36;84.12;100188.48;130406;1268;108704;-74
2022/08/02 05:31:57;;;;;;;6.00;5.30;;;;;;;21.38;83.36;100190.21;130383;1268;107575;-74
2022/08/02 05:35:03;;;;;;;9.00;8.00;;;;;;;21.38;83.45;100195.80;130324;1268;108919;-74
2022/08/02 05:38:08;;;;;;;10.10;9.10;;;;;;;21.34;83.87;100196.69;130267;1267;108833;-74
2022/08/02 05:41:14;;;;;;;10.20;9.20;;;;;;;21.30;84.16;100202.46;130227;1268;109762;-74
2022/08/02 05:44:19;;;;;;;12.60;11.40;;;;;;;21.16;84.31;100207.52;130311;1268;108759;-74
2022/08/02 05:47:25;;;;;;;7.20;6.00;;;;;;;21.09;84.29;100207.70;130275;1268;108850;-74
2022/08/02 05:50:31;;;;;;;6.30;5.70;;;;;;;21.10;83.31;100205.38;130323;1268;108746;-74
2022/08/02 05:53:45;;;;;;;6.30;5.70;;;;;;;21.15;83.32;100211.63;130355;1268;108861;-74
2022/08/02 05:56:56;;;;;;;10.10;9.10;;;;;;;21.15;83.15;100214.66;130356;1268;108648;-74
2022/08/02 06:00:09;;;;;;;12.60;11.30;;;;;;;21.13;83.08;100217.52;130286;1268;108608;-74
2022/08/02 06:03:25;;;;;;;7.70;6.30;;;;;;;21.06;83.61;100224.31;130267;1268;108732;-74
2022/08/02 06:06:32;;;;;;;6.70;6.00;;;;;;;21.01;83.91;100225.60;130282;1268;108762;-74
2022/08/02 06:09:40;;;;;;;7.20;6.30;;;;;;;20.99;83.66;100229.09;130309;1267;108264;-75
2022/08/02 06:12:48;;;;;;;6.50;5.90;;;;;;;21.03;83.50;100231.15;130307;1267;108718;-75
2022/08/02 06:15:58;;;;;;;10.80;9.80;;;;;;;21.09;82.74;100229.16;130327;1268;108792;-75
2022/08/02 06:19:04;;;;;;;15.90;14.40;;;;;;;21.17;83.34;100233.68;130295;1268;108714;-75
2022/08/02 06:22:16;;;;;;;13.40;11.80;;;;;;;21.21;83.83;100235.53;130293;1267;108852;-75
2022/08/02 06:25:23;;;;;;;15.00;13.50;;;;;;;21.23;83.80;100240.64;130291;1267;108833;-75
2022/08/02 06:28:30;;;;;;;12.30;11.10;;;;;;;21.23;84.19;100244.97;130523;1267;108682;-76
2022/08/02 06:31:37;;;;;;;16.40;14.80;;;;;;;21.22;84.12;100248.37;130392;1268;109720;-73
2022/08/02 06:34:42;;;;;;;16.10;14.60;;;;;;;21.32;84.68;100249.33;130370;1268;108988;-75
2022/08/02 06:37:53;;;;;;;15.90;14.30;;;;;;;21.43;84.50;100250.30;130323;1267;108782;-74
2022/08/02 06:41:05;;;;;;;15.50;14.00;;;;;;;21.50;84.58;100255.89;130326;1267;108598;-73
2022/08/02 06:44:11;;;;;;;15.70;14.20;;;;;;;21.59;84.30;100255.92;130346;1268;108715;-74
2022/08/02 06:47:16;;;;;;;15.70;14.30;;;;;;;21.70;84.29;100260.77;130360;1267;108666;-74
2022/08/02 06:50:22;;;;;;;16.10;14.70;;;;;;;21.86;84.42;100265.01;130325;1267;110270;-75
2022/08/02 06:53:27;;;;;;;17.10;15.50;;;;;;;22.00;84.13;100270.41;130306;1267;108654;-76
2022/08/02 06:56:32;;;;;;;15.20;13.60;;;;;;;22.08;84.33;100268.92;130329;1267;108714;-76
2022/08/02 06:59:38;;;;;;;14.90;13.40;;;;;;;22.13;83.87;100273.45;130253;1268;108747;-74
2022/08/02 07:02:43;;;;;;;14.30;13.00;;;;;;;22.14;83.80;100275.40;130318;1268;108877;-74
2022/08/02 07:05:49;;;;;;;13.40;12.10;;;;;;;22.33;83.82;100276.70;130331;1268;109285;-76
2022/08/02 07:08:54;;;;;;;14.40;13.10;;;;;;;22.48;83.13;100276.57;130344;1267;108893;-76
2022/08/02 07:11:59;;;;;;;14.00;11.30;;;;;;;22.46;82.33;100277.69;130358;1267;108884;-76
2022/08/02 07:15:08;;;;;;;13.40;12.10;;;;;;;22.51;82.55;100277.24;130285;1268;108633;-75
2022/08/02 07:18:14;;;;;;;12.40;11.30;;;;;;;22.56;82.58;100280.52;130326;1267;108473;-76
2022/08/02 07:21:20;;;;;;;12.10;10.90;;;;;;;22.62;82.30;100282.84;130300;1268;108716;-76
2022/08/02 07:24:25;;;;;;;12.10;11.00;;;;;;;22.75;82.43;100281.61;130335;1268;108850;-74
2022/08/02 07:27:31;;;;;;;10.80;9.80;;;;;;;22.89;82.08;100284.23;130319;1267;108955;-74
2022/08/02 07:30:36;;;;;;;10.10;9.20;;;;;;;23.04;81.66;100281.15;130336;1267;108847;-76
2022/08/02 07:33:42;;;;;;;9.40;8.60;;;;;;;23.21;81.62;100279.89;130303;1267;108809;-76
2022/08/02 07:36:47;;;;;;;10.60;9.50;;;;;;;23.34;80.84;100287.88;130355;1267;108722;-76
2022/08/02 07:39:53;;;;;;;10.50;9.40;;;;;;;23.40;80.45;100283.54;130354;1267;108809;-76
2022/08/02 07:42:59;;;;;;;10.60;9.40;;;;;;;23.49;80.59;100279.94;130310;1268;108834;-76
2022/08/02 07:46:04;;;;;;;10.80;9.80;;;;;;;23.58;80.69;100281.50;130338;1267;109918;-77
2022/08/02 07:49:09;;;;;;;11.20;10.20;;;;;;;23.70;80.47;100281.16;130330;1267;108654;-76
2022/08/02 07:52:15;;;;;;;10.40;9.30;;;;;;;23.74;79.07;100284.83;130337;1267;108763;-76
2022/08/02 07:55:20;;;;;;;9.00;8.20;;;;;;;23.52;78.34;100278.48;130332;1267;108767;-76
2022/08/02 07:58:26;;;;;;;10.40;9.30;;;;;;;23.41;78.73;100279.87;130344;1267;108093;-76
2022/08/02 08:01:31;;;;;;;9.50;8.60;;;;;;;23.33;77.66;100282.08;130316;1267;108736;-77
2022/08/02 08:04:37;;;;;;;7.90;7.10;;;;;;;23.31;78.49;100282.42;130301;1268;108700;-76
2022/08/02 08:07:43;;;;;;;7.30;6.40;;;;;;;23.36;78.45;100289.02;130350;1267;108724;-76
2022/08/02 08:10:48;;;;;;;7.50;6.50;;;;;;;23.41;78.13;100288.68;130326;1267;108863;-76
2022/08/02 08:13:54;;;;;;;8.40;6.90;;;;;;;23.49;77.78;100289.52;130292;1267;108663;-75
2022/08/02 08:16:59;;;;;;;6.90;6.30;;;;;;;23.56;77.78;100288.05;130361;1267;107758;-75
2022/08/02 08:20:06;;;;;;;7.60;5.60;;;;;;;23.66;77.34;100287.45;130355;1267;108988;-75
2022/08/02 08:23:12;;;;;;;6.20;5.60;;;;;;;23.77;77.10;100288.39;130342;1267;108821;-75
2022/08/02 08:26:17;;;;;;;6.30;5.70;;;;;;;23.87;76.85;100288.91;130338;1267;108740;-75
2022/08/02 08:29:25;;;;;;;6.40;5.80;;;;;;;24.00;76.54;100291.13;130340;1268;108823;-75
2022/08/02 08:32:30;;;;;;;6.50;5.90;;;;;;;24.12;75.56;100291.38;130370;1267;108741;-75
2022/08/02 08:35:36;;;;;;;6.50;5.90;;;;;;;24.26;75.62;100291.81;130370;1268;108751;-75
2022/08/02 08:38:41;;;;;;;6.70;5.90;;;;;;;24.40;74.37;100297.64;130370;1267;109123;-75
2022/08/02 08:41:47;;;;;;;6.40;5.80;;;;;;;24.51;74.11;100295.14;130377;1267;108633;-76
2022/08/02 08:44:52;;;;;;;6.30;5.80;;;;;;;24.62;74.04;100294.64;130389;1267;107633;-76
2022/08/02 08:48:08;;;;;;;6.10;5.50;;;;;;;24.79;73.83;100293.87;130330;1267;108885;-76
2022/08/02 08:51:19;;;;;;;5.80;5.20;;;;;;;24.92;73.47;100294.95;130415;1267;108760;-76
2022/08/02 08:54:28;;;;;;;6.20;5.70;;;;;;;25.01;72.96;100301.66;130374;1268;108691;-75
2022/08/02 08:57:35;;;;;;;6.00;5.40;;;;;;;25.00;72.85;100301.31;130344;1267;108748;-75
2022/08/02 09:00:41;;;;;;;6.60;5.10;;;;;;;24.81;70.00;100307.43;130397;1268;108722;-75
2022/08/02 09:03:46;;;;;;;5.90;5.40;;;;;;;24.48;70.40;100314.49;130356;1268;108881;-75
2022/08/02 09:06:52;;;;;;;6.10;5.00;;;;;;;24.28;70.85;100312.42;130328;1268;108860;-75
2022/08/02 09:09:57;;;;;;;5.30;4.80;;;;;;;24.21;71.14;100310.96;130321;1268;109001;-75
2022/08/02 09:13:17;;;;;;;5.30;4.90;;;;;;;24.29;71.78;100314.02;130377;1267;108666;-75
2022/08/02 09:16:34;;;;;;;5.40;4.90;;;;;;;24.49;71.36;100319.48;130375;1267;109051;-77
2022/08/02 09:19:40;;;;;;;5.00;4.50;;;;;;;24.78;70.82;100313.11;130397;1268;108823;-77
2022/08/02 09:23:04;;;;;;;5.50;5.00;;;;;;;24.98;70.73;100317.73;130396;1268;108830;-76
2022/08/02 09:26:11;;;;;;;5.30;4.80;;;;;;;25.15;70.40;100318.98;130358;1267;108690;-77
2022/08/02 09:29:18;;;;;;;5.10;4.70;;;;;;;25.34;69.94;100318.27;130372;1267;108423;-77
2022/08/02 09:32:23;;;;;;;5.40;4.80;;;;;;;25.53;69.73;100318.27;130413;1268;107856;-77
2022/08/02 09:35:37;;;;;;;5.40;4.90;;;;;;;25.66;69.19;100322.08;130377;1267;107673;-77
2022/08/02 09:38:55;;;;;;;5.60;5.10;;;;;;;25.68;68.76;100326.64;130407;1268;108929;-77
2022/08/02 09:42:10;;;;;;;4.90;4.40;;;;;;;25.62;68.85;100329.18;130372;1268;108777;-77
2022/08/02 09:45:15;;;;;;;4.90;4.40;;;;;;;25.51;68.89;100325.64;130387;1268;108892;-77
2022/08/02 09:48:21;;;;;;;5.50;5.00;;;;;;;25.40;68.89;100330.92;130385;1268;108663;-77
2022/08/02 09:51:28;;;;;;;5.60;5.00;;;;;;;25.27;69.13;100330.89;130388;1267;108677;-77
2022/08/02 09:54:35;;;;;;;5.90;5.30;;;;;;;25.11;69.10;100328.42;130446;1268;108715;-77
2022/08/02 09:57:40;;;;;;;5.10;4.50;;;;;;;24.98;69.22;100331.35;130416;1268;108658;-77
2022/08/02 10:00:55;;;;;;;5.00;4.60;;;;;;;24.87;69.16;100328.34;130381;1267;107588;-77
2022/08/02 10:04:02;;;;;;;5.80;5.10;;;;;;;24.78;68.94;100331.81;130410;1267;108687;-77
2022/08/02 10:07:07;;;;;;;4.80;4.40;;;;;;;24.69;69.14;100339.86;130394;1268;108703;-77
2022/08/02 10:10:13;;;;;;;5.40;4.90;;;;;;;24.60;69.28;100340.44;130395;1268;108877;-77
2022/08/02 10:13:19;;;;;;;6.30;5.80;;;;;;;24.46;68.89;100340.98;130418;1267;107166;-76
2022/08/02 10:16:25;;;;;;;5.90;5.40;;;;;;;24.26;68.99;100341.29;130400;1267;109078;-77
2022/08/02 10:19:30;;;;;;;6.10;5.50;;;;;;;24.11;68.96;100343.75;130437;1268;108716;-77
2022/08/02 10:22:37;;;;;;;6.40;5.80;;;;;;;23.93;69.25;100344.03;130408;1267;108903;-77
2022/08/02 10:25:45;;;;;;;6.80;5.80;;;;;;;23.74;69.03;100346.10;130403;1268;108803;-76
2022/08/02 10:28:52;;;;;;;6.50;5.80;;;;;;;23.58;69.29;100347.02;130409;1268;108967;-76
2022/08/02 10:32:01;;;;;;;6.10;5.10;;;;;;;23.51;70.01;100350.53;130415;1268;108800;-76
2022/08/02 10:35:11;;;;;;;6.20;5.70;;;;;;;23.60;70.61;100350.55;130403;1267;109648;-76
2022/08/02 10:38:18;;;;;;;6.90;6.30;;;;;;;23.71;70.91;100351.09;130138;1267;108819;-76
2022/08/02 10:41:44;;;;;;;7.80;6.40;;;;;;;23.88;71.23;100351.65;130360;1268;108998;-76
2022/08/02 10:45:08;;;;;;;7.10;6.00;;;;;;;24.07;71.51;100346.17;130328;1267;108798;-76
2022/08/02 10:48:14;;;;;;;7.10;6.40;;;;;;;24.27;71.68;100352.82;130394;1268;108817;-76
2022/08/02 10:51:19;;;;;;;7.20;6.50;;;;;;;24.42;71.69;100350.45;130288;1268;108593;-75
2022/08/02 10:54:27;;;;;;;6.30;5.70;;;;;;;24.51;71.75;100349.23;130273;1268;108757;-74
2022/08/02 10:57:35;;;;;;;6.20;5.60;;;;;;;24.57;71.65;100347.44;130364;1268;108844;-74
2022/08/02 11:00:40;;;;;;;8.10;5.80;;;;;;;24.59;71.25;100347.73;130379;1267;109003;-75
2022/08/02 11:03:46;;;;;;;8.50;6.00;;;;;;;24.59;71.05;100344.78;130349;1268;108693;-76
2022/08/02 11:07:12;;;;;;;5.40;4.90;;;;;;;24.55;71.09;100349.41;130398;1268;107610;-75
2022/08/02 11:10:34;;;;;;;6.00;5.50;;;;;;;24.56;71.31;100346.10;130492;1268;108815;-76
2022/08/02 11:14:02;;;;;;;6.40;5.80;;;;;;;24.73;71.33;100343.69;130431;1268;108747;-75
2022/08/02 11:17:12;;;;;;;6.10;5.60;;;;;;;25.00;71.30;100336.91;130353;1268;108639;-76
2022/08/02 11:20:21;;;;;;;6.30;5.70;;;;;;;25.28;70.62;100339.42;130364;1267;108726;-76
2022/08/02 11:23:38;;;;;;;6.90;5.50;;;;;;;25.59;69.78;100330.98;130380;1268;108768;-76
2022/08/02 11:26:45;;;;;;;5.00;4.60;;;;;;;25.86;68.54;100323.89;130429;1267;108915;-76
2022/08/02 11:29:51;;;;;;;5.50;5.00;;;;;;;25.93;68.94;100322.46;130394;1268;108921;-76
2022/08/02 11:32:59;;;;;;;6.00;5.50;;;;;;;25.92;68.53;100321.19;130399;1268;108076;-76
2022/08/02 11:36:06;;;;;;;5.20;4.80;;;;;;;25.86;68.19;100327.77;130378;1267;108873;-76
2022/08/02 11:39:13;;;;;;;5.30;4.80;;;;;;;25.78;66.60;100333.50;130413;1268;108683;-76
2022/08/02 11:42:20;;;;;;;5.60;5.10;;;;;;;25.51;65.82;100334.15;130290;1267;107620;-76
2022/08/02 11:45:27;;;;;;;6.00;5.40;;;;;;;25.22;65.63;100341.94;130362;1268;109061;-76
2022/08/02 11:48:35;;;;;;;6.70;5.90;;;;;;;24.94;66.45;100342.64;130350;1268;109033;-76
2022/08/02 11:51:50;;;;;;;6.20;5.70;;;;;;;24.71;65.83;100352.55;130356;1267;108881;-76
2022/08/02 11:54:55;;;;;;;5.90;5.40;;;;;;;24.49;66.28;100349.72;130332;1268;108972;-77
2022/08/02 11:58:02;;;;;;;7.70;6.30;;;;;;;24.38;66.74;100352.55;130357;1268;107328;-76
2022/08/02 12:01:07;;;;;;;7.20;5.90;;;;;;;24.35;66.74;100351.17;130166;1267;306451;-76
2022/08/02 12:04:15;;;;;;;6.80;6.20;;;;;;;24.39;66.94;100355.98;130359;1268;108771;-75
2022/08/02 12:07:28;;;;;;;8.20;6.50;;;;;;;24.45;66.69;100354.91;130427;1268;108713;-77
2022/08/02 12:10:33;;;;;;;6.70;6.10;;;;;;;24.46;66.60;100353.79;130276;1268;107758;-77
2022/08/02 12:13:46;;;;;;;7.50;6.80;;;;;;;24.54;66.35;100352.33;130338;1268;108591;-76
2022/08/02 12:20:16;;;;;;;7.60;6.80;;;;;;;24.80;66.44;100343.44;130356;1268;108822;-76
2022/08/02 12:23:21;;;;;;;6.10;5.60;;;;;;;24.97;66.22;100340.85;130486;1268;108269;-76
2022/08/02 12:26:26;;;;;;;9.20;8.00;;;;;;;25.16;65.80;100339.09;130381;1267;108729;-76
2022/08/02 12:29:34;;;;;;;9.60;8.40;;;;;;;25.35;64.48;100342.48;130513;1268;108548;-77
2022/08/02 12:32:39;;;;;;;8.30;7.60;;;;;;;25.36;62.80;100341.90;130423;1266;109130;-76
2022/08/02 12:35:45;;;;;;;7.90;7.10;;;;;;;25.34;64.65;100347.22;130304;1268;108653;-76
2022/08/02 12:38:55;;;;;;;7.60;6.90;;;;;;;25.35;63.61;100350.58;130325;1267;108755;-76
2022/08/02 12:42:00;;;;;;;7.00;6.30;;;;;;;25.22;62.50;100351.23;130363;1268;108700;-76
2022/08/02 12:45:07;;;;;;;8.00;6.40;;;;;;;25.14;63.45;100352.17;130329;1268;108767;-76
2022/08/02 12:48:12;;;;;;;6.90;6.20;;;;;;;25.27;63.83;100353.60;130365;1268;108891;-77
2022/08/02 12:51:27;;;;;;;6.50;5.90;;;;;;;25.31;62.96;100353.73;130332;1267;108861;-77
2022/08/02 12:54:40;;;;;;;6.10;5.60;;;;;;;25.39;63.15;100356.05;130369;1268;108805;-77
2022/08/02 12:57:55;;;;;;;8.80;6.40;;;;;;;25.58;63.59;100350.83;130368;1268;108501;-77
2022/08/02 13:01:02;;;;;;;5.60;5.00;;;;;;;25.84;61.92;100351.41;130412;1268;108783;-78
2022/08/02 13:04:07;;;;;;;5.80;5.30;;;;;;;25.96;61.53;100354.67;130364;1268;108690;-75
2022/08/02 13:07:13;;;;;;;5.60;4.70;;;;;;;26.01;62.43;100352.66;130306;1268;108650;-75
2022/08/02 13:10:19;;;;;;;5.40;4.70;;;;;;;26.07;61.04;100354.60;130342;1267;108620;-75
2022/08/02 13:13:25;;;;;;;6.50;5.00;;;;;;;25.99;60.88;100352.52;130339;1268;108783;-75
2022/08/02 13:16:31;;;;;;;5.80;4.70;;;;;;;25.91;59.78;100352.94;130350;1268;108600;-75
2022/08/02 13:19:37;;;;;;;5.20;4.70;;;;;;;25.78;60.28;100352.15;130418;1268;107110;-78
2022/08/02 13:22:43;;;;;;;5.20;4.70;;;;;;;25.77;59.59;100352.69;130344;1268;108638;-75
2022/08/02 13:25:48;;;;;;;4.90;4.40;;;;;;;25.75;59.83;100347.36;130350;1268;108859;-77
2022/08/02 13:28:54;;;;;;;5.10;4.70;;;;;;;25.90;60.93;100348.23;130429;1268;108876;-76
2022/08/02 13:32:00;;;;;;;5.40;4.60;;;;;;;26.04;59.83;100347.66;130391;1268;108577;-76
2022/08/02 13:35:06;;;;;;;4.40;4.00;;;;;;;26.10;59.81;100348.88;130416;1267;108632;-77
2022/08/02 13:38:11;;;;;;;6.40;4.90;;;;;;;26.27;60.02;100349.31;130388;1268;108858;-76
2022/08/02 13:41:17;;;;;;;4.90;4.40;;;;;;;26.36;59.80;100342.10;130322;1267;108845;-76
2022/08/02 13:44:22;;;;;;;5.30;4.80;;;;;;;26.31;58.37;100339.69;130245;1268;108915;-76
2022/08/02 13:47:27;;;;;;;5.20;4.70;;;;;;;26.14;57.78;100336.23;130450;1268;108728;-76
2022/08/02 13:50:33;;;;;;;5.70;5.10;;;;;;;25.99;57.83;100334.16;130448;1267;108584;-76
2022/08/02 13:53:39;;;;;;;5.10;4.70;;;;;;;25.86;56.83;100333.23;130219;1268;108634;-76
2022/08/02 13:56:45;;;;;;;5.90;5.40;;;;;;;25.87;58.95;100327.13;130239;1268;108722;-76
2022/08/02 13:59:50;;;;;;;5.50;5.00;;;;;;;25.91;58.51;100326.38;130235;1268;108835;-76
2022/08/02 14:02:56;;;;;;;5.30;4.80;;;;;;;25.91;58.76;100325.83;130211;1268;108851;-76
2022/08/02 14:06:01;;;;;;;5.40;4.90;;;;;;;25.95;57.91;100325.23;130127;1269;108880;-76
2022/08/02 14:09:07;;;;;;;5.00;4.60;;;;;;;25.98;57.44;100321.16;130025;1268;109212;-76
2022/08/02 14:12:13;;;;;;;5.80;4.70;;;;;;;26.06;58.47;100321.98;130209;1271;108709;-77
2022/08/02 14:15:18;;;;;;;5.40;4.90;;;;;;;26.07;57.81;100319.27;130301;1268;108905;-76